sensor_id;sensor_type;location;lat;lon;timestamp;P1;durP1;ratioP1;P2;durP2;ratioP2
43883;SDS011;71973;52.018;5.810;2023-11-19T00:00:27;21.10;;;8.73;;
43883;SDS011;71973;52.018;5.810;2023-11-19T00:02:53;16.73;;;8.02;;
43883;SDS011;71973;52.018;5.810;2023-11-19T00:05:19;19.17;;;7.53;;
43883;SDS011;71973;52.018;5.810;2023-11-19T00:07:45;16.27;;;7.65;;
43883;SDS011;71973;52.018;5.810;2023-11-19T00:10:12;20.42;;;7.53;;
43883;SDS011;71973;52.018;5.810;2023-11-19T00:12:42;16.48;;;6.97;;
43883;SDS011;71973;52.018;5.810;2023-11-19T00:15:15;18.42;;;6.97;;
43883;SDS011;71973;52.018;5.810;2023-11-19T00:17:44;15.65;;;5.85;;
43883;SDS011;71973;52.018;5.810;2023-11-19T00:20:10;12.20;;;5.35;;
43883;SDS011;71973;52.018;5.810;2023-11-19T00:22:36;15.23;;;6.22;;
43883;SDS011;71973;52.018;5.810;2023-11-19T00:25:02;14.80;;;6.20;;
43883;SDS011;71973;52.018;5.810;2023-11-19T00:27:29;13.95;;;5.78;;
43883;SDS011;71973;52.018;5.810;2023-11-19T00:29:55;15.80;;;6.03;;
43883;SDS011;71973;52.018;5.810;2023-11-19T00:32:21;15.68;;;4.57;;
43883;SDS011;71973;52.018;5.810;2023-11-19T00:34:47;12.00;;;5.43;;
43883;SDS011;71973;52.018;5.810;2023-11-19T00:37:14;11.57;;;4.57;;
43883;SDS011;71973;52.018;5.810;2023-11-19T00:39:40;11.70;;;4.85;;
43883;SDS011;71973;52.018;5.810;2023-11-19T00:42:06;10.75;;;4.20;;
43883;SDS011;71973;52.018;5.810;2023-11-19T00:44:32;12.93;;;4.93;;
43883;SDS011;71973;52.018;5.810;2023-11-19T00:46:58;11.70;;;4.45;;
43883;SDS011;71973;52.018;5.810;2023-11-19T00:49:25;11.15;;;4.65;;
43883;SDS011;71973;52.018;5.810;2023-11-19T00:51:51;10.43;;;3.80;;
43883;SDS011;71973;52.018;5.810;2023-11-19T00:54:17;9.70;;;4.15;;
43883;SDS011;71973;52.018;5.810;2023-11-19T00:56:43;9.48;;;3.85;;
43883;SDS011;71973;52.018;5.810;2023-11-19T00:59:09;6.93;;;3.72;;
43883;SDS011;71973;52.018;5.810;2023-11-19T01:01:35;8.65;;;3.85;;
43883;SDS011;71973;52.018;5.810;2023-11-19T01:04:01;10.63;;;4.13;;
43883;SDS011;71973;52.018;5.810;2023-11-19T01:06:30;8.32;;;3.83;;
43883;SDS011;71973;52.018;5.810;2023-11-19T01:08:57;8.82;;;3.38;;
43883;SDS011;71973;52.018;5.810;2023-11-19T01:11:23;14.55;;;4.18;;
43883;SDS011;71973;52.018;5.810;2023-11-19T01:13:49;8.70;;;3.78;;
43883;SDS011;71973;52.018;5.810;2023-11-19T01:16:16;7.78;;;3.63;;
43883;SDS011;71973;52.018;5.810;2023-11-19T01:18:42;6.18;;;3.35;;
43883;SDS011;71973;52.018;5.810;2023-11-19T01:21:08;9.05;;;3.22;;
43883;SDS011;71973;52.018;5.810;2023-11-19T01:23:34;5.55;;;2.85;;
43883;SDS011;71973;52.018;5.810;2023-11-19T01:28:26;6.65;;;2.63;;
43883;SDS011;71973;52.018;5.810;2023-11-19T01:30:52;7.30;;;3.10;;
43883;SDS011;71973;52.018;5.810;2023-11-19T01:33:18;8.93;;;3.22;;
43883;SDS011;71973;52.018;5.810;2023-11-19T01:35:44;6.43;;;2.72;;
43883;SDS011;71973;52.018;5.810;2023-11-19T01:38:10;5.50;;;3.08;;
43883;SDS011;71973;52.018;5.810;2023-11-19T01:40:36;7.05;;;2.72;;
43883;SDS011;71973;52.018;5.810;2023-11-19T01:43:03;6.78;;;2.83;;
43883;SDS011;71973;52.018;5.810;2023-11-19T01:45:30;7.15;;;2.63;;
43883;SDS011;71973;52.018;5.810;2023-11-19T01:47:57;5.53;;;2.67;;
43883;SDS011;71973;52.018;5.810;2023-11-19T01:50:24;6.68;;;2.40;;
43883;SDS011;71973;52.018;5.810;2023-11-19T01:52:52;8.27;;;2.95;;
43883;SDS011;71973;52.018;5.810;2023-11-19T01:55:18;6.15;;;2.50;;
43883;SDS011;71973;52.018;5.810;2023-11-19T01:57:45;5.38;;;2.10;;
43883;SDS011;71973;52.018;5.810;2023-11-19T02:00:12;6.38;;;2.35;;
43883;SDS011;71973;52.018;5.810;2023-11-19T02:05:05;5.72;;;2.08;;
43883;SDS011;71973;52.018;5.810;2023-11-19T02:07:31;6.82;;;2.60;;
43883;SDS011;71973;52.018;5.810;2023-11-19T02:09:57;6.90;;;2.30;;
43883;SDS011;71973;52.018;5.810;2023-11-19T02:12:25;5.57;;;2.08;;
43883;SDS011;71973;52.018;5.810;2023-11-19T02:14:53;4.72;;;2.15;;
43883;SDS011;71973;52.018;5.810;2023-11-19T02:17:26;6.15;;;2.40;;
43883;SDS011;71973;52.018;5.810;2023-11-19T02:19:52;6.07;;;2.17;;
43883;SDS011;71973;52.018;5.810;2023-11-19T02:22:18;4.28;;;2.00;;
43883;SDS011;71973;52.018;5.810;2023-11-19T02:27:14;5.35;;;2.20;;
43883;SDS011;71973;52.018;5.810;2023-11-19T02:29:42;6.88;;;2.03;;
43883;SDS011;71973;52.018;5.810;2023-11-19T02:32:08;4.88;;;2.17;;
43883;SDS011;71973;52.018;5.810;2023-11-19T02:34:34;7.60;;;2.72;;
43883;SDS011;71973;52.018;5.810;2023-11-19T02:37:00;5.57;;;2.35;;
43883;SDS011;71973;52.018;5.810;2023-11-19T02:39:26;6.60;;;2.47;;
43883;SDS011;71973;52.018;5.810;2023-11-19T02:41:53;7.05;;;2.10;;
43883;SDS011;71973;52.018;5.810;2023-11-19T02:44:19;6.13;;;1.88;;
43883;SDS011;71973;52.018;5.810;2023-11-19T02:46:45;7.10;;;2.10;;
43883;SDS011;71973;52.018;5.810;2023-11-19T02:49:13;7.20;;;2.50;;
43883;SDS011;71973;52.018;5.810;2023-11-19T02:51:39;5.18;;;2.05;;
43883;SDS011;71973;52.018;5.810;2023-11-19T02:54:05;10.35;;;2.80;;
43883;SDS011;71973;52.018;5.810;2023-11-19T02:56:31;3.88;;;1.77;;
43883;SDS011;71973;52.018;5.810;2023-11-19T02:59:00;7.13;;;2.30;;
43883;SDS011;71973;52.018;5.810;2023-11-19T03:01:34;6.90;;;2.53;;
43883;SDS011;71973;52.018;5.810;2023-11-19T03:04:01;7.47;;;2.33;;
43883;SDS011;71973;52.018;5.810;2023-11-19T03:06:27;8.30;;;2.30;;
43883;SDS011;71973;52.018;5.810;2023-11-19T03:11:19;6.47;;;2.28;;
43883;SDS011;71973;52.018;5.810;2023-11-19T03:13:45;8.60;;;2.53;;
43883;SDS011;71973;52.018;5.810;2023-11-19T03:16:11;7.70;;;2.13;;
43883;SDS011;71973;52.018;5.810;2023-11-19T03:18:38;4.95;;;1.67;;
43883;SDS011;71973;52.018;5.810;2023-11-19T03:23:30;8.18;;;2.40;;
43883;SDS011;71973;52.018;5.810;2023-11-19T03:25:56;8.15;;;2.65;;
43883;SDS011;71973;52.018;5.810;2023-11-19T03:28:22;7.30;;;1.98;;
43883;SDS011;71973;52.018;5.810;2023-11-19T03:30:48;5.63;;;1.90;;
43883;SDS011;71973;52.018;5.810;2023-11-19T03:33:14;6.20;;;2.53;;
43883;SDS011;71973;52.018;5.810;2023-11-19T03:35:40;8.90;;;2.70;;
43883;SDS011;71973;52.018;5.810;2023-11-19T03:38:06;6.38;;;2.42;;
43883;SDS011;71973;52.018;5.810;2023-11-19T03:40:32;7.38;;;2.17;;
43883;SDS011;71973;52.018;5.810;2023-11-19T03:42:58;8.30;;;2.70;;
43883;SDS011;71973;52.018;5.810;2023-11-19T03:45:24;7.55;;;2.22;;
43883;SDS011;71973;52.018;5.810;2023-11-19T03:47:50;8.02;;;2.55;;
43883;SDS011;71973;52.018;5.810;2023-11-19T03:52:44;8.30;;;3.17;;
43883;SDS011;71973;52.018;5.810;2023-11-19T03:55:10;8.60;;;2.28;;
43883;SDS011;71973;52.018;5.810;2023-11-19T03:57:37;9.32;;;2.70;;
43883;SDS011;71973;52.018;5.810;2023-11-19T04:00:03;8.27;;;2.65;;
43883;SDS011;71973;52.018;5.810;2023-11-19T04:02:38;6.30;;;2.17;;
43883;SDS011;71973;52.018;5.810;2023-11-19T04:05:04;10.32;;;3.42;;
43883;SDS011;71973;52.018;5.810;2023-11-19T04:07:31;6.85;;;2.42;;
43883;SDS011;71973;52.018;5.810;2023-11-19T04:09:57;7.80;;;2.83;;
43883;SDS011;71973;52.018;5.810;2023-11-19T04:12:23;13.13;;;3.78;;
43883;SDS011;71973;52.018;5.810;2023-11-19T04:14:49;8.68;;;2.83;;
43883;SDS011;71973;52.018;5.810;2023-11-19T04:17:15;9.98;;;3.15;;
43883;SDS011;71973;52.018;5.810;2023-11-19T04:19:41;8.48;;;2.55;;
43883;SDS011;71973;52.018;5.810;2023-11-19T04:22:08;6.22;;;2.35;;
43883;SDS011;71973;52.018;5.810;2023-11-19T04:24:34;8.05;;;2.53;;
43883;SDS011;71973;52.018;5.810;2023-11-19T04:27:00;10.13;;;3.10;;
43883;SDS011;71973;52.018;5.810;2023-11-19T04:29:26;10.35;;;3.20;;
43883;SDS011;71973;52.018;5.810;2023-11-19T04:31:52;8.48;;;3.40;;
43883;SDS011;71973;52.018;5.810;2023-11-19T04:34:18;12.10;;;3.72;;
43883;SDS011;71973;52.018;5.810;2023-11-19T04:36:44;10.55;;;3.05;;
43883;SDS011;71973;52.018;5.810;2023-11-19T04:39:10;13.80;;;4.05;;
43883;SDS011;71973;52.018;5.810;2023-11-19T04:41:45;10.27;;;3.35;;
43883;SDS011;71973;52.018;5.810;2023-11-19T04:44:11;10.48;;;3.78;;
43883;SDS011;71973;52.018;5.810;2023-11-19T04:46:37;11.38;;;3.53;;
43883;SDS011;71973;52.018;5.810;2023-11-19T04:49:03;12.95;;;3.33;;
43883;SDS011;71973;52.018;5.810;2023-11-19T04:51:29;14.55;;;3.90;;
43883;SDS011;71973;52.018;5.810;2023-11-19T04:53:55;8.93;;;3.45;;
43883;SDS011;71973;52.018;5.810;2023-11-19T04:56:21;11.38;;;3.50;;
43883;SDS011;71973;52.018;5.810;2023-11-19T05:01:14;11.75;;;3.83;;
43883;SDS011;71973;52.018;5.810;2023-11-19T05:03:41;8.65;;;3.30;;
43883;SDS011;71973;52.018;5.810;2023-11-19T05:06:07;13.75;;;3.70;;
43883;SDS011;71973;52.018;5.810;2023-11-19T05:08:33;11.30;;;3.58;;
43883;SDS011;71973;52.018;5.810;2023-11-19T05:10:59;12.38;;;3.25;;
43883;SDS011;71973;52.018;5.810;2023-11-19T05:13:25;10.65;;;3.28;;
43883;SDS011;71973;52.018;5.810;2023-11-19T05:15:51;9.55;;;3.50;;
43883;SDS011;71973;52.018;5.810;2023-11-19T05:18:17;11.27;;;3.13;;
43883;SDS011;71973;52.018;5.810;2023-11-19T05:20:43;13.65;;;3.97;;
43883;SDS011;71973;52.018;5.810;2023-11-19T05:23:09;11.00;;;3.45;;
43883;SDS011;71973;52.018;5.810;2023-11-19T05:25:36;12.85;;;3.78;;
43883;SDS011;71973;52.018;5.810;2023-11-19T05:28:02;12.07;;;3.85;;
43883;SDS011;71973;52.018;5.810;2023-11-19T05:30:28;12.60;;;3.60;;
43883;SDS011;71973;52.018;5.810;2023-11-19T05:32:54;10.63;;;3.47;;
43883;SDS011;71973;52.018;5.810;2023-11-19T05:35:20;12.18;;;3.97;;
43883;SDS011;71973;52.018;5.810;2023-11-19T05:37:46;11.63;;;3.72;;
43883;SDS011;71973;52.018;5.810;2023-11-19T05:40:12;11.77;;;3.85;;
43883;SDS011;71973;52.018;5.810;2023-11-19T05:42:41;11.85;;;3.60;;
43883;SDS011;71973;52.018;5.810;2023-11-19T05:45:07;11.40;;;3.50;;
43883;SDS011;71973;52.018;5.810;2023-11-19T05:47:34;13.82;;;3.53;;
43883;SDS011;71973;52.018;5.810;2023-11-19T05:50:00;11.60;;;3.78;;
43883;SDS011;71973;52.018;5.810;2023-11-19T05:52:26;10.35;;;3.85;;
43883;SDS011;71973;52.018;5.810;2023-11-19T05:54:53;14.40;;;3.78;;
43883;SDS011;71973;52.018;5.810;2023-11-19T05:57:19;13.30;;;4.05;;
43883;SDS011;71973;52.018;5.810;2023-11-19T05:59:48;9.82;;;3.33;;
43883;SDS011;71973;52.018;5.810;2023-11-19T06:02:15;11.57;;;3.60;;
43883;SDS011;71973;52.018;5.810;2023-11-19T06:04:41;12.38;;;3.78;;
43883;SDS011;71973;52.018;5.810;2023-11-19T06:07:09;14.07;;;3.90;;
43883;SDS011;71973;52.018;5.810;2023-11-19T06:09:35;12.35;;;3.58;;
43883;SDS011;71973;52.018;5.810;2023-11-19T06:12:01;13.65;;;4.13;;
43883;SDS011;71973;52.018;5.810;2023-11-19T06:14:27;11.25;;;3.28;;
43883;SDS011;71973;52.018;5.810;2023-11-19T06:16:53;11.15;;;3.15;;
43883;SDS011;71973;52.018;5.810;2023-11-19T06:19:19;11.68;;;3.60;;
43883;SDS011;71973;52.018;5.810;2023-11-19T06:21:45;14.35;;;3.90;;
43883;SDS011;71973;52.018;5.810;2023-11-19T06:24:11;13.00;;;3.42;;
43883;SDS011;71973;52.018;5.810;2023-11-19T06:26:37;11.15;;;3.10;;
43883;SDS011;71973;52.018;5.810;2023-11-19T06:29:04;15.15;;;4.25;;
43883;SDS011;71973;52.018;5.810;2023-11-19T06:31:30;10.20;;;3.22;;
43883;SDS011;71973;52.018;5.810;2023-11-19T06:33:56;11.88;;;3.88;;
43883;SDS011;71973;52.018;5.810;2023-11-19T06:36:22;18.00;;;4.47;;
43883;SDS011;71973;52.018;5.810;2023-11-19T06:38:48;14.68;;;4.07;;
43883;SDS011;71973;52.018;5.810;2023-11-19T06:41:14;12.23;;;4.18;;
43883;SDS011;71973;52.018;5.810;2023-11-19T06:43:40;9.13;;;3.67;;
43883;SDS011;71973;52.018;5.810;2023-11-19T06:46:06;14.35;;;4.50;;
43883;SDS011;71973;52.018;5.810;2023-11-19T06:48:39;12.27;;;3.47;;
43883;SDS011;71973;52.018;5.810;2023-11-19T06:51:07;12.75;;;3.95;;
43883;SDS011;71973;52.018;5.810;2023-11-19T06:53:34;14.50;;;3.88;;
43883;SDS011;71973;52.018;5.810;2023-11-19T06:56:00;16.15;;;4.28;;
43883;SDS011;71973;52.018;5.810;2023-11-19T06:58:29;11.63;;;3.78;;
43883;SDS011;71973;52.018;5.810;2023-11-19T07:00:54;13.70;;;4.18;;
43883;SDS011;71973;52.018;5.810;2023-11-19T07:03:20;13.65;;;3.95;;
43883;SDS011;71973;52.018;5.810;2023-11-19T07:05:46;11.75;;;3.85;;
43883;SDS011;71973;52.018;5.810;2023-11-19T07:08:12;12.73;;;4.05;;
43883;SDS011;71973;52.018;5.810;2023-11-19T07:10:38;11.85;;;4.15;;
43883;SDS011;71973;52.018;5.810;2023-11-19T07:13:04;13.30;;;4.03;;
43883;SDS011;71973;52.018;5.810;2023-11-19T07:15:31;12.57;;;3.97;;
43883;SDS011;71973;52.018;5.810;2023-11-19T07:17:57;13.63;;;4.38;;
43883;SDS011;71973;52.018;5.810;2023-11-19T07:22:51;10.48;;;4.05;;
43883;SDS011;71973;52.018;5.810;2023-11-19T07:25:17;10.45;;;3.53;;
43883;SDS011;71973;52.018;5.810;2023-11-19T07:27:43;12.23;;;3.70;;
43883;SDS011;71973;52.018;5.810;2023-11-19T07:30:09;13.93;;;4.00;;
43883;SDS011;71973;52.018;5.810;2023-11-19T07:32:35;15.85;;;4.65;;
43883;SDS011;71973;52.018;5.810;2023-11-19T07:35:04;11.50;;;4.15;;
43883;SDS011;71973;52.018;5.810;2023-11-19T07:37:30;12.82;;;4.40;;
43883;SDS011;71973;52.018;5.810;2023-11-19T07:39:56;12.18;;;3.83;;
43883;SDS011;71973;52.018;5.810;2023-11-19T07:42:22;10.32;;;3.25;;
43883;SDS011;71973;52.018;5.810;2023-11-19T07:44:48;15.80;;;4.00;;
43883;SDS011;71973;52.018;5.810;2023-11-19T07:47:14;14.25;;;3.80;;
43883;SDS011;71973;52.018;5.810;2023-11-19T07:49:40;13.88;;;3.63;;
43883;SDS011;71973;52.018;5.810;2023-11-19T07:52:08;12.07;;;3.55;;
43883;SDS011;71973;52.018;5.810;2023-11-19T07:54:34;14.27;;;4.38;;
43883;SDS011;71973;52.018;5.810;2023-11-19T07:57:00;15.68;;;4.78;;
43883;SDS011;71973;52.018;5.810;2023-11-19T07:59:26;11.55;;;3.67;;
43883;SDS011;71973;52.018;5.810;2023-11-19T08:01:52;14.10;;;4.05;;
43883;SDS011;71973;52.018;5.810;2023-11-19T08:04:18;17.10;;;4.60;;
43883;SDS011;71973;52.018;5.810;2023-11-19T08:06:44;12.23;;;3.60;;
43883;SDS011;71973;52.018;5.810;2023-11-19T08:09:10;12.95;;;3.70;;
43883;SDS011;71973;52.018;5.810;2023-11-19T08:11:38;20.35;;;4.88;;
43883;SDS011;71973;52.018;5.810;2023-11-19T08:14:04;13.07;;;3.60;;
43883;SDS011;71973;52.018;5.810;2023-11-19T08:16:30;12.88;;;4.30;;
43883;SDS011;71973;52.018;5.810;2023-11-19T08:18:56;14.07;;;4.10;;
43883;SDS011;71973;52.018;5.810;2023-11-19T08:21:23;16.90;;;4.40;;
43883;SDS011;71973;52.018;5.810;2023-11-19T08:23:49;12.40;;;3.88;;
43883;SDS011;71973;52.018;5.810;2023-11-19T08:26:15;16.92;;;3.75;;
43883;SDS011;71973;52.018;5.810;2023-11-19T08:28:41;15.07;;;4.55;;
43883;SDS011;71973;52.018;5.810;2023-11-19T08:31:07;15.90;;;4.38;;
43883;SDS011;71973;52.018;5.810;2023-11-19T08:33:33;14.98;;;4.00;;
43883;SDS011;71973;52.018;5.810;2023-11-19T08:35:59;16.63;;;4.13;;
43883;SDS011;71973;52.018;5.810;2023-11-19T08:38:25;12.70;;;3.85;;
43883;SDS011;71973;52.018;5.810;2023-11-19T08:40:51;14.75;;;4.10;;
43883;SDS011;71973;52.018;5.810;2023-11-19T08:43:17;12.68;;;3.65;;
43883;SDS011;71973;52.018;5.810;2023-11-19T08:45:43;17.77;;;4.47;;
43883;SDS011;71973;52.018;5.810;2023-11-19T08:48:09;14.32;;;3.70;;
43883;SDS011;71973;52.018;5.810;2023-11-19T08:50:35;12.60;;;4.05;;
43883;SDS011;71973;52.018;5.810;2023-11-19T08:53:01;17.05;;;3.63;;
43883;SDS011;71973;52.018;5.810;2023-11-19T08:55:27;19.48;;;3.97;;
43883;SDS011;71973;52.018;5.810;2023-11-19T08:57:53;12.50;;;3.58;;
43883;SDS011;71973;52.018;5.810;2023-11-19T09:00:19;14.52;;;4.10;;
43883;SDS011;71973;52.018;5.810;2023-11-19T09:02:46;14.57;;;4.30;;
43883;SDS011;71973;52.018;5.810;2023-11-19T09:05:11;14.02;;;3.58;;
43883;SDS011;71973;52.018;5.810;2023-11-19T09:07:37;16.60;;;4.00;;
43883;SDS011;71973;52.018;5.810;2023-11-19T09:10:03;16.38;;;4.78;;
43883;SDS011;71973;52.018;5.810;2023-11-19T09:12:30;16.23;;;5.13;;
43883;SDS011;71973;52.018;5.810;2023-11-19T09:14:56;14.25;;;4.32;;
43883;SDS011;71973;52.018;5.810;2023-11-19T09:17:22;16.05;;;4.40;;
43883;SDS011;71973;52.018;5.810;2023-11-19T09:19:48;12.50;;;3.72;;
43883;SDS011;71973;52.018;5.810;2023-11-19T09:22:14;13.32;;;3.95;;
43883;SDS011;71973;52.018;5.810;2023-11-19T09:24:41;14.60;;;4.03;;
43883;SDS011;71973;52.018;5.810;2023-11-19T09:27:09;20.40;;;5.20;;
43883;SDS011;71973;52.018;5.810;2023-11-19T09:29:35;18.65;;;4.82;;
43883;SDS011;71973;52.018;5.810;2023-11-19T09:32:01;18.98;;;4.22;;
43883;SDS011;71973;52.018;5.810;2023-11-19T09:34:27;15.43;;;4.20;;
43883;SDS011;71973;52.018;5.810;2023-11-19T09:36:53;20.48;;;4.65;;
43883;SDS011;71973;52.018;5.810;2023-11-19T09:39:19;21.23;;;4.25;;
43883;SDS011;71973;52.018;5.810;2023-11-19T09:41:46;16.75;;;4.43;;
43883;SDS011;71973;52.018;5.810;2023-11-19T09:44:12;17.38;;;4.78;;
43883;SDS011;71973;52.018;5.810;2023-11-19T09:46:40;16.80;;;4.88;;
43883;SDS011;71973;52.018;5.810;2023-11-19T09:49:06;16.05;;;3.80;;
43883;SDS011;71973;52.018;5.810;2023-11-19T09:51:34;15.13;;;4.30;;
43883;SDS011;71973;52.018;5.810;2023-11-19T09:54:00;15.48;;;4.50;;
43883;SDS011;71973;52.018;5.810;2023-11-19T09:56:26;19.20;;;4.70;;
43883;SDS011;71973;52.018;5.810;2023-11-19T09:58:54;16.05;;;3.95;;
43883;SDS011;71973;52.018;5.810;2023-11-19T10:01:20;16.05;;;4.28;;
43883;SDS011;71973;52.018;5.810;2023-11-19T10:03:46;15.07;;;4.45;;
43883;SDS011;71973;52.018;5.810;2023-11-19T10:08:38;16.70;;;5.10;;
43883;SDS011;71973;52.018;5.810;2023-11-19T10:11:05;14.23;;;3.83;;
43883;SDS011;71973;52.018;5.810;2023-11-19T10:13:31;16.58;;;4.43;;
43883;SDS011;71973;52.018;5.810;2023-11-19T10:16:03;17.70;;;5.05;;
43883;SDS011;71973;52.018;5.810;2023-11-19T10:18:29;16.30;;;4.47;;
43883;SDS011;71973;52.018;5.810;2023-11-19T10:20:55;17.40;;;4.15;;
43883;SDS011;71973;52.018;5.810;2023-11-19T10:23:21;17.38;;;4.57;;
43883;SDS011;71973;52.018;5.810;2023-11-19T10:25:47;21.23;;;4.53;;
43883;SDS011;71973;52.018;5.810;2023-11-19T10:28:16;16.55;;;4.20;;
43883;SDS011;71973;52.018;5.810;2023-11-19T10:30:42;19.88;;;5.45;;
43883;SDS011;71973;52.018;5.810;2023-11-19T10:33:09;20.10;;;4.80;;
43883;SDS011;71973;52.018;5.810;2023-11-19T10:35:55;16.40;;;4.38;;
43883;SDS011;71973;52.018;5.810;2023-11-19T10:38:21;17.73;;;4.57;;
43883;SDS011;71973;52.018;5.810;2023-11-19T10:40:48;13.77;;;3.63;;
43883;SDS011;71973;52.018;5.810;2023-11-19T10:43:15;17.80;;;4.68;;
43883;SDS011;71973;52.018;5.810;2023-11-19T10:48:08;17.90;;;4.18;;
43883;SDS011;71973;52.018;5.810;2023-11-19T10:50:35;19.73;;;4.47;;
43883;SDS011;71973;52.018;5.810;2023-11-19T10:53:01;17.52;;;4.18;;
43883;SDS011;71973;52.018;5.810;2023-11-19T10:55:32;13.02;;;3.85;;
43883;SDS011;71973;52.018;5.810;2023-11-19T10:58:00;15.18;;;4.07;;
43883;SDS011;71973;52.018;5.810;2023-11-19T11:00:30;15.00;;;3.95;;
43883;SDS011;71973;52.018;5.810;2023-11-19T11:03:00;16.85;;;4.72;;
43883;SDS011;71973;52.018;5.810;2023-11-19T11:05:27;13.98;;;3.90;;
43883;SDS011;71973;52.018;5.810;2023-11-19T11:07:55;13.75;;;4.05;;
43883;SDS011;71973;52.018;5.810;2023-11-19T11:10:23;13.57;;;4.22;;
43883;SDS011;71973;52.018;5.810;2023-11-19T11:12:51;18.33;;;4.20;;
43883;SDS011;71973;52.018;5.810;2023-11-19T11:15:24;18.42;;;5.47;;
43883;SDS011;71973;52.018;5.810;2023-11-19T11:17:54;15.15;;;4.43;;
43883;SDS011;71973;52.018;5.810;2023-11-19T11:20:21;18.55;;;4.47;;
43883;SDS011;71973;52.018;5.810;2023-11-19T11:23:36;13.77;;;4.00;;
43883;SDS011;71973;52.018;5.810;2023-11-19T11:36:17;14.52;;;4.93;;
43883;SDS011;71973;52.018;5.810;2023-11-19T11:38:45;17.17;;;4.38;;
43883;SDS011;71973;52.018;5.810;2023-11-19T11:41:23;14.80;;;4.20;;
43883;SDS011;71973;52.018;5.810;2023-11-19T11:43:53;15.38;;;3.50;;
43883;SDS011;71973;52.018;5.810;2023-11-19T11:49:01;11.32;;;3.40;;
43883;SDS011;71973;52.018;5.810;2023-11-19T11:54:11;13.23;;;3.88;;
43883;SDS011;71973;52.018;5.810;2023-11-19T11:56:37;15.68;;;4.13;;
43883;SDS011;71973;52.018;5.810;2023-11-19T11:59:07;10.68;;;3.40;;
43883;SDS011;71973;52.018;5.810;2023-11-19T12:01:33;12.13;;;3.97;;
43883;SDS011;71973;52.018;5.810;2023-11-19T12:04:00;14.88;;;4.43;;
43883;SDS011;71973;52.018;5.810;2023-11-19T12:06:27;9.80;;;3.53;;
43883;SDS011;71973;52.018;5.810;2023-11-19T12:08:56;12.13;;;4.40;;
43883;SDS011;71973;52.018;5.810;2023-11-19T12:11:24;12.90;;;3.45;;
43883;SDS011;71973;52.018;5.810;2023-11-19T12:13:55;13.70;;;3.40;;
43883;SDS011;71973;52.018;5.810;2023-11-19T12:16:23;15.93;;;4.40;;
43883;SDS011;71973;52.018;5.810;2023-11-19T12:18:49;10.75;;;3.88;;
43883;SDS011;71973;52.018;5.810;2023-11-19T12:21:28;12.70;;;3.78;;
43883;SDS011;71973;52.018;5.810;2023-11-19T12:23:58;11.95;;;3.45;;
43883;SDS011;71973;52.018;5.810;2023-11-19T12:26:38;11.10;;;3.38;;
43883;SDS011;71973;52.018;5.810;2023-11-19T12:29:05;13.47;;;3.80;;
43883;SDS011;71973;52.018;5.810;2023-11-19T12:31:31;11.90;;;3.45;;
43883;SDS011;71973;52.018;5.810;2023-11-19T12:33:57;10.40;;;3.10;;
43883;SDS011;71973;52.018;5.810;2023-11-19T12:36:25;12.23;;;2.95;;
43883;SDS011;71973;52.018;5.810;2023-11-19T12:38:51;12.32;;;3.25;;
43883;SDS011;71973;52.018;5.810;2023-11-19T12:41:17;12.98;;;3.30;;
43883;SDS011;71973;52.018;5.810;2023-11-19T12:43:45;11.10;;;3.17;;
43883;SDS011;71973;52.018;5.810;2023-11-19T12:46:21;14.85;;;3.50;;
43883;SDS011;71973;52.018;5.810;2023-11-19T12:48:48;12.87;;;3.40;;
43883;SDS011;71973;52.018;5.810;2023-11-19T12:54:01;17.40;;;3.55;;
43883;SDS011;71973;52.018;5.810;2023-11-19T12:56:26;13.27;;;4.00;;
43883;SDS011;71973;52.018;5.810;2023-11-19T12:58:52;11.95;;;3.35;;
43883;SDS011;71973;52.018;5.810;2023-11-19T13:01:20;12.15;;;4.00;;
43883;SDS011;71973;52.018;5.810;2023-11-19T13:03:46;12.15;;;3.40;;
43883;SDS011;71973;52.018;5.810;2023-11-19T13:06:14;9.65;;;3.20;;
43883;SDS011;71973;52.018;5.810;2023-11-19T13:08:46;10.02;;;2.70;;
43883;SDS011;71973;52.018;5.810;2023-11-19T13:11:31;15.90;;;3.58;;
43883;SDS011;71973;52.018;5.810;2023-11-19T13:18:50;12.32;;;3.90;;
43883;SDS011;71973;52.018;5.810;2023-11-19T13:21:16;10.25;;;3.25;;
43883;SDS011;71973;52.018;5.810;2023-11-19T13:23:43;9.57;;;3.65;;
43883;SDS011;71973;52.018;5.810;2023-11-19T13:26:09;15.55;;;3.10;;
43883;SDS011;71973;52.018;5.810;2023-11-19T13:28:35;11.50;;;3.03;;
43883;SDS011;71973;52.018;5.810;2023-11-19T13:31:01;16.17;;;3.42;;
43883;SDS011;71973;52.018;5.810;2023-11-19T13:33:27;11.77;;;3.55;;
43883;SDS011;71973;52.018;5.810;2023-11-19T13:38:20;10.27;;;2.92;;
43883;SDS011;71973;52.018;5.810;2023-11-19T13:40:46;12.43;;;3.20;;
43883;SDS011;71973;52.018;5.810;2023-11-19T13:45:38;10.00;;;3.10;;
43883;SDS011;71973;52.018;5.810;2023-11-19T13:48:04;10.10;;;3.15;;
43883;SDS011;71973;52.018;5.810;2023-11-19T13:50:30;9.02;;;2.83;;
43883;SDS011;71973;52.018;5.810;2023-11-19T13:55:23;12.77;;;3.33;;
43883;SDS011;71973;52.018;5.810;2023-11-19T13:57:48;7.82;;;2.83;;
43883;SDS011;71973;52.018;5.810;2023-11-19T14:00:15;10.43;;;3.42;;
43883;SDS011;71973;52.018;5.810;2023-11-19T14:02:44;7.32;;;2.50;;
43883;SDS011;71973;52.018;5.810;2023-11-19T14:05:11;12.60;;;2.97;;
43883;SDS011;71973;52.018;5.810;2023-11-19T14:07:37;10.10;;;3.10;;
43883;SDS011;71973;52.018;5.810;2023-11-19T14:10:04;9.88;;;3.25;;
43883;SDS011;71973;52.018;5.810;2023-11-19T14:12:34;8.65;;;2.72;;
43883;SDS011;71973;52.018;5.810;2023-11-19T14:15:04;11.45;;;2.70;;
43883;SDS011;71973;52.018;5.810;2023-11-19T14:17:31;7.15;;;2.60;;
43883;SDS011;71973;52.018;5.810;2023-11-19T14:19:57;9.75;;;2.95;;
43883;SDS011;71973;52.018;5.810;2023-11-19T14:22:23;8.43;;;3.13;;
43883;SDS011;71973;52.018;5.810;2023-11-19T14:24:49;7.57;;;2.60;;
43883;SDS011;71973;52.018;5.810;2023-11-19T14:27:15;10.15;;;3.13;;
43883;SDS011;71973;52.018;5.810;2023-11-19T14:29:44;9.50;;;2.88;;
43883;SDS011;71973;52.018;5.810;2023-11-19T14:32:10;9.30;;;3.13;;
43883;SDS011;71973;52.018;5.810;2023-11-19T14:34:36;9.30;;;3.05;;
43883;SDS011;71973;52.018;5.810;2023-11-19T14:37:03;8.65;;;2.72;;
43883;SDS011;71973;52.018;5.810;2023-11-19T14:39:29;9.15;;;3.38;;
43883;SDS011;71973;52.018;5.810;2023-11-19T14:41:56;8.35;;;2.40;;
43883;SDS011;71973;52.018;5.810;2023-11-19T14:44:25;8.90;;;2.60;;
43883;SDS011;71973;52.018;5.810;2023-11-19T14:46:51;8.00;;;3.17;;
43883;SDS011;71973;52.018;5.810;2023-11-19T14:49:17;8.93;;;2.58;;
43883;SDS011;71973;52.018;5.810;2023-11-19T14:51:43;8.68;;;3.08;;
43883;SDS011;71973;52.018;5.810;2023-11-19T14:54:09;8.98;;;2.63;;
43883;SDS011;71973;52.018;5.810;2023-11-19T14:56:35;7.72;;;2.50;;
43883;SDS011;71973;52.018;5.810;2023-11-19T14:59:03;8.18;;;2.28;;
43883;SDS011;71973;52.018;5.810;2023-11-19T15:01:29;8.43;;;2.80;;
43883;SDS011;71973;52.018;5.810;2023-11-19T15:06:25;8.93;;;2.60;;
43883;SDS011;71973;52.018;5.810;2023-11-19T15:08:52;8.77;;;2.78;;
43883;SDS011;71973;52.018;5.810;2023-11-19T15:11:18;8.73;;;2.78;;
43883;SDS011;71973;52.018;5.810;2023-11-19T15:13:44;6.07;;;2.63;;
43883;SDS011;71973;52.018;5.810;2023-11-19T15:16:10;6.80;;;2.60;;
43883;SDS011;71973;52.018;5.810;2023-11-19T15:21:02;7.93;;;2.75;;
43883;SDS011;71973;52.018;5.810;2023-11-19T15:23:28;6.22;;;2.30;;
43883;SDS011;71973;52.018;5.810;2023-11-19T15:25:54;7.57;;;2.53;;
43883;SDS011;71973;52.018;5.810;2023-11-19T15:28:21;8.43;;;2.67;;
43883;SDS011;71973;52.018;5.810;2023-11-19T15:30:47;6.10;;;2.50;;
43883;SDS011;71973;52.018;5.810;2023-11-19T15:33:13;8.40;;;2.70;;
43883;SDS011;71973;52.018;5.810;2023-11-19T15:35:40;7.18;;;2.53;;